createdAt,value
2023-05-05T00:00:05.459Z,957.64
2023-05-05T00:01:07.465Z,957.63
2023-05-05T00:02:09.289Z,957.63
2023-05-05T00:03:11.320Z,957.63
2023-05-05T00:04:13.334Z,957.64
2023-05-05T00:05:15.311Z,957.6
2023-05-05T00:06:17.286Z,957.63
2023-05-05T00:07:19.285Z,957.62
2023-05-05T00:08:21.275Z,957.63
2023-05-05T00:09:23.258Z,957.6
2023-05-05T00:10:25.336Z,957.61
2023-05-05T00:11:27.352Z,957.62
2023-05-05T00:12:29.279Z,957.6
2023-05-05T00:13:32.322Z,957.58
2023-05-05T00:14:35.260Z,957.57
2023-05-05T00:15:37.383Z,957.59
2023-05-05T00:16:39.310Z,957.55
2023-05-05T00:17:41.297Z,957.56
2023-05-05T00:19:45.283Z,957.56
2023-05-05T00:21:49.819Z,957.53
2023-05-05T00:22:52.772Z,957.54
2023-05-05T00:23:54.790Z,957.51
2023-05-05T00:24:56.740Z,957.5
2023-05-05T00:25:58.771Z,957.52
2023-05-05T00:27:01.842Z,957.53
2023-05-05T00:28:03.767Z,957.48
2023-05-05T00:29:05.803Z,957.48
2023-05-05T00:30:08.062Z,957.46
2023-05-05T00:31:10.999Z,957.42
2023-05-05T00:32:12.775Z,957.4
2023-05-05T00:33:14.789Z,957.4
2023-05-05T00:34:16.799Z,957.41
2023-05-05T00:35:18.790Z,957.4
2023-05-05T00:36:21.799Z,957.43
2023-05-05T00:38:26.805Z,957.4
2023-05-05T00:39:28.787Z,957.4
2023-05-05T00:40:31.879Z,957.39
2023-05-05T00:41:34.793Z,957.4
2023-05-05T00:42:36.854Z,957.4
2023-05-05T00:43:38.792Z,957.42
2023-05-05T00:44:40.808Z,957.42
2023-05-05T00:45:43.790Z,957.42
2023-05-05T00:46:45.898Z,957.39
2023-05-05T00:47:47.941Z,957.39
2023-05-05T00:48:49.898Z,957.34
2023-05-05T00:49:51.817Z,957.32
2023-05-05T00:50:53.807Z,957.31
2023-05-05T00:51:55.805Z,957.31
2023-05-05T00:52:58.817Z,957.3
2023-05-05T00:54:00.864Z,957.29
2023-05-05T00:55:02.856Z,957.31
2023-05-05T00:56:04.813Z,957.31
2023-05-05T00:57:06.807Z,957.32
2023-05-05T00:58:08.803Z,957.31
2023-05-05T00:59:10.857Z,957.3
2023-05-05T01:00:12.846Z,957.35
2023-05-05T01:01:14.812Z,957.33
2023-05-05T01:02:16.794Z,957.32
2023-05-05T01:03:18.946Z,957.35
2023-05-05T01:04:20.852Z,957.35
2023-05-05T01:05:22.817Z,957.33
2023-05-05T01:06:24.829Z,957.36
2023-05-05T01:07:26.806Z,957.35
2023-05-05T01:08:29.793Z,957.38
2023-05-05T01:09:32.096Z,957.35
2023-05-05T01:10:34.895Z,957.35
2023-05-05T01:11:36.883Z,957.34
2023-05-05T01:12:38.866Z,957.32
2023-05-05T01:13:40.814Z,957.3
2023-05-05T01:14:42.813Z,957.31
2023-05-05T01:15:44.872Z,957.29
2023-05-05T01:16:46.814Z,957.28
2023-05-05T01:17:48.841Z,957.25
2023-05-05T01:18:50.812Z,957.22
2023-05-05T01:19:52.825Z,957.21
2023-05-05T01:20:55.873Z,957.21
2023-05-05T01:21:57.821Z,957.2
2023-05-05T01:22:59.829Z,957.15
2023-05-05T01:24:01.819Z,957.15
2023-05-05T01:25:03.880Z,957.14
2023-05-05T01:26:05.894Z,957.13
2023-05-05T01:27:07.817Z,957.11
2023-05-05T01:28:09.822Z,957.14
2023-05-05T01:29:11.827Z,957.1
2023-05-05T01:30:13.833Z,957.13
2023-05-05T01:31:15.925Z,957.13
2023-05-05T01:32:17.849Z,957.13
2023-05-05T01:33:19.822Z,957.15
2023-05-05T01:34:21.835Z,957.17
2023-05-05T01:35:23.826Z,957.22
2023-05-05T01:36:26.885Z,957.23
2023-05-05T01:37:28.868Z,957.21
2023-05-05T01:38:31.921Z,957.21
2023-05-05T01:39:34.833Z,957.2
2023-05-05T01:40:36.874Z,957.21
2023-05-05T01:41:38.900Z,957.24
2023-05-05T01:42:40.897Z,957.23
2023-05-05T01:43:42.830Z,957.21
2023-05-05T01:44:44.861Z,957.22
2023-05-05T01:45:46.854Z,957.2
2023-05-05T01:46:48.845Z,957.18
2023-05-05T01:47:50.911Z,957.2
2023-05-05T01:48:52.839Z,957.18
2023-05-05T01:49:54.826Z,957.17
2023-05-05T01:50:56.884Z,957.19
2023-05-05T01:51:58.863Z,957.2
2023-05-05T01:53:00.845Z,957.22
2023-05-05T01:54:02.846Z,957.24
2023-05-05T01:55:04.833Z,957.22
2023-05-05T01:56:06.965Z,957.26
2023-05-05T01:57:08.838Z,957.29
2023-05-05T01:58:10.847Z,957.3
2023-05-05T01:59:12.845Z,957.31
2023-05-05T02:00:14.859Z,957.32
2023-05-05T02:01:16.911Z,957.29
2023-05-05T02:02:18.880Z,957.28
2023-05-05T02:03:20.988Z,957.28
2023-05-05T02:04:22.961Z,957.25
2023-05-05T02:05:24.871Z,957.23
2023-05-05T02:06:27.908Z,957.23
2023-05-05T02:07:29.845Z,957.24
2023-05-05T02:08:31.919Z,957.23
2023-05-05T02:09:35.918Z,957.22
2023-05-05T02:10:37.842Z,957.24
2023-05-05T02:11:40.059Z,957.2
2023-05-05T02:12:41.876Z,957.19
2023-05-05T02:13:43.927Z,957.18
2023-05-05T02:14:45.855Z,957.14
2023-05-05T02:15:47.901Z,957.16
2023-05-05T02:16:50.922Z,957.16
2023-05-05T02:17:53.035Z,957.17
2023-05-05T02:18:54.854Z,957.2
2023-05-05T02:19:56.875Z,957.17
2023-05-05T02:20:58.881Z,957.15
2023-05-05T02:22:00.927Z,957.18
2023-05-05T02:23:02.868Z,957.18
2023-05-05T02:24:04.871Z,957.18
2023-05-05T02:25:06.870Z,957.21
2023-05-05T02:26:08.865Z,957.21
2023-05-05T02:27:10.982Z,957.2
2023-05-05T02:28:12.870Z,957.25
2023-05-05T02:29:14.865Z,957.27
2023-05-05T02:30:16.903Z,957.3
2023-05-05T02:31:18.982Z,957.3
2023-05-05T02:32:21.994Z,957.29
2023-05-05T02:33:23.863Z,957.28
2023-05-05T02:34:25.844Z,957.25
2023-05-05T02:35:28.879Z,957.24
2023-05-05T02:36:31.966Z,957.26
2023-05-05T02:37:34.970Z,957.27
2023-05-05T02:38:36.936Z,957.25
2023-05-05T02:39:38.948Z,957.28
2023-05-05T02:40:40.954Z,957.29
2023-05-05T02:41:43.917Z,957.29
2023-05-05T02:42:45.930Z,957.31
2023-05-05T02:43:47.927Z,957.28
2023-05-05T02:44:49.866Z,957.3
2023-05-05T02:45:51.876Z,957.29
2023-05-05T02:46:54.012Z,957.31
2023-05-05T02:47:55.976Z,957.29
2023-05-05T02:48:57.931Z,957.28
2023-05-05T02:49:59.893Z,957.26
2023-05-05T02:51:02.895Z,957.28
2023-05-05T02:52:04.955Z,957.26
2023-05-05T02:53:06.877Z,957.27
2023-05-05T02:54:08.947Z,957.27
2023-05-05T02:56:12.909Z,957.23
2023-05-05T02:57:14.898Z,957.23
2023-05-05T02:58:16.891Z,957.21
2023-05-05T02:59:18.947Z,957.24
2023-05-05T03:00:20.882Z,957.22
2023-05-05T03:01:22.890Z,957.25
2023-05-05T03:02:24.989Z,957.24
2023-05-05T03:03:27.004Z,957.24
2023-05-05T03:04:28.947Z,957.22
2023-05-05T03:05:32.033Z,957.23
2023-05-05T03:06:34.903Z,957.21
2023-05-05T03:07:36.896Z,957.2
2023-05-05T03:08:38.890Z,957.21
2023-05-05T03:09:40.895Z,957.21
2023-05-05T03:10:43.891Z,957.21
2023-05-05T03:11:45.899Z,957.19
2023-05-05T03:12:47.920Z,957.2
2023-05-05T03:13:49.905Z,957.18
2023-05-05T03:14:51.907Z,957.23
2023-05-05T03:15:54.995Z,957.22
2023-05-05T03:16:56.893Z,957.22
2023-05-05T03:17:58.948Z,957.24
2023-05-05T03:19:00.898Z,957.17
2023-05-05T03:20:03.977Z,957.17
2023-05-05T03:21:05.188Z,957.17
2023-05-05T03:22:06.885Z,957.16
2023-05-05T03:23:08.967Z,957.15
2023-05-05T03:24:11.909Z,957.14
2023-05-05T03:25:13.902Z,957.13
2023-05-05T03:26:15.899Z,957.14
2023-05-05T03:27:17.905Z,957.13
2023-05-05T03:28:19.962Z,957.15
2023-05-05T03:29:21.910Z,957.14
2023-05-05T03:30:23.911Z,957.13
2023-05-05T03:31:25.927Z,957.14
2023-05-05T03:32:27.912Z,957.15
2023-05-05T03:34:32.290Z,957.14
2023-05-05T03:35:34.932Z,957.14
2023-05-05T03:36:36.969Z,957.12
2023-05-05T03:37:38.966Z,957.14
2023-05-05T03:38:40.912Z,957.15
2023-05-05T03:39:42.918Z,957.16
2023-05-05T03:40:45.055Z,957.17
2023-05-05T03:41:46.912Z,957.14
2023-05-05T03:42:48.910Z,957.13
2023-05-05T03:43:50.929Z,957.14
2023-05-05T03:44:52.921Z,957.16
2023-05-05T03:45:55.915Z,957.16
2023-05-05T03:47:06.014Z,957.12
2023-05-05T03:47:59.974Z,957.14
2023-05-05T03:49:01.920Z,957.14
2023-05-05T03:50:03.928Z,957.15
2023-05-05T03:51:05.925Z,957.14
2023-05-05T03:52:08.022Z,957.17
2023-05-05T03:53:09.989Z,957.18
2023-05-05T03:54:11.993Z,957.19
2023-05-05T03:55:13.928Z,957.17
2023-05-05T03:56:15.959Z,957.17
2023-05-05T03:57:17.943Z,957.15
2023-05-05T03:58:19.923Z,957.15
2023-05-05T03:59:21.926Z,957.15
2023-05-05T04:00:23.939Z,957.13
2023-05-05T04:01:26.994Z,957.16
2023-05-05T04:02:28.999Z,957.16
2023-05-05T04:03:32.109Z,957.13
2023-05-05T04:04:34.970Z,957.15
2023-05-05T04:05:37.943Z,957.13
2023-05-05T04:06:40.016Z,957.13
2023-05-05T04:07:41.998Z,957.13
2023-05-05T04:08:43.942Z,957.12
2023-05-05T04:09:45.952Z,957.14
2023-05-05T04:10:47.948Z,957.13
2023-05-05T04:11:50.001Z,957.15
2023-05-05T04:12:51.984Z,957.17
2023-05-05T04:13:54.935Z,957.17
2023-05-05T04:14:56.955Z,957.19
2023-05-05T04:16:00.004Z,957.2
2023-05-05T04:17:02.017Z,957.21
2023-05-05T04:18:04.025Z,957.14
2023-05-05T04:19:05.964Z,957.14
2023-05-05T04:20:08.221Z,957.07
2023-05-05T04:21:09.950Z,957.07
2023-05-05T04:22:12.042Z,957.06
2023-05-05T04:23:31.766Z,957.08
2023-05-05T04:24:31.796Z,957.06
2023-05-05T04:25:31.722Z,957.08
2023-05-05T04:26:31.744Z,957.12
2023-05-05T04:27:31.785Z,957.12
2023-05-05T04:28:31.791Z,957.13
2023-05-05T04:29:31.745Z,957.15
2023-05-05T04:30:31.741Z,957.18
2023-05-05T04:31:32.107Z,957.18
2023-05-05T04:32:36.019Z,957.18
2023-05-05T04:33:39.228Z,957.16
2023-05-05T04:34:40.966Z,957.12
2023-05-05T04:35:42.951Z,957.11
2023-05-05T04:36:57.666Z,957.11
2023-05-05T04:37:46.961Z,957.1
2023-05-05T04:38:49.046Z,957.09
2023-05-05T04:39:50.958Z,957.12
2023-05-05T04:40:52.967Z,957.15
2023-05-05T04:41:54.963Z,957.18
2023-05-05T04:42:56.986Z,957.2
2023-05-05T04:43:59.012Z,957.21
2023-05-05T04:45:00.964Z,957.19
2023-05-05T04:46:02.972Z,957.22
2023-05-05T04:47:04.967Z,957.22
2023-05-05T04:48:06.993Z,957.2
2023-05-05T04:49:09.076Z,957.19
2023-05-05T04:50:11.092Z,957.21
2023-05-05T04:51:12.983Z,957.2
2023-05-05T04:52:15.075Z,957.23
2023-05-05T04:53:16.998Z,957.23
2023-05-05T04:54:19.046Z,957.22
2023-05-05T04:55:21.001Z,957.23
2023-05-05T04:56:23.025Z,957.21
2023-05-05T04:57:24.967Z,957.17
2023-05-05T04:58:26.971Z,957.18
2023-05-05T04:59:29.012Z,957.16
2023-05-05T05:00:32.124Z,957.14
2023-05-05T05:01:38.281Z,957.16
2023-05-05T05:02:38.142Z,957.14
2023-05-05T05:03:40.309Z,957.17
2023-05-05T05:04:41.969Z,957.18
2023-05-05T05:05:44.023Z,957.22
2023-05-05T05:06:46.008Z,957.26
2023-05-05T05:07:48.023Z,957.28
2023-05-05T05:08:49.967Z,957.27
2023-05-05T05:09:51.966Z,957.3
2023-05-05T05:10:54.034Z,957.3
2023-05-05T05:11:55.990Z,957.28
2023-05-05T05:12:58.067Z,957.23
2023-05-05T05:13:59.992Z,957.2
2023-05-05T05:15:01.993Z,957.19
2023-05-05T05:16:05.051Z,957.19
2023-05-05T05:17:06.982Z,957.18
2023-05-05T05:18:09.022Z,957.11
2023-05-05T05:19:12.082Z,957.13
2023-05-05T05:20:14.019Z,957.13
2023-05-05T05:21:16.060Z,957.11
2023-05-05T05:22:18.011Z,957.12
2023-05-05T05:23:20.017Z,957.11
2023-05-05T05:24:21.983Z,957.13
2023-05-05T05:25:23.993Z,957.12
2023-05-05T05:26:26.045Z,957.13
2023-05-05T05:27:28.011Z,957.13
2023-05-05T05:28:29.969Z,957.13
2023-05-05T05:29:32.367Z,957.12
2023-05-05T05:30:34.992Z,957.16
2023-05-05T05:31:37.178Z,957.13
2023-05-05T05:32:39.020Z,957.11
2023-05-05T05:33:41.131Z,957.11
2023-05-05T05:34:42.990Z,957.1
2023-05-05T05:35:44.991Z,957.08
2023-05-05T05:36:47.049Z,957.09
2023-05-05T05:38:31.788Z,957.08
2023-05-05T05:39:31.792Z,957.08
2023-05-05T05:40:31.804Z,957.12
2023-05-05T05:41:31.802Z,957.09
2023-05-05T05:42:31.893Z,957.09
2023-05-05T05:43:31.790Z,957.11
2023-05-05T05:44:31.793Z,957.09
2023-05-05T05:45:31.779Z,957.1
2023-05-05T05:46:31.840Z,957.08
2023-05-05T05:47:31.869Z,957.06
2023-05-05T05:48:31.842Z,957.07
2023-05-05T05:50:14.011Z,957.07
2023-05-05T05:51:16.015Z,957.1
2023-05-05T05:52:19.021Z,957.08
2023-05-05T05:53:21.018Z,957.08
2023-05-05T05:54:23.075Z,957.08
2023-05-05T05:55:25.005Z,957.09
2023-05-05T05:56:28.019Z,957.11
2023-05-05T05:57:30.002Z,957.1
2023-05-05T05:58:32.094Z,957.13
2023-05-05T05:59:35.084Z,957.14
2023-05-05T06:00:37.070Z,957.15
2023-05-05T06:01:39.017Z,957.11
2023-05-05T06:02:45.896Z,957.11
2023-05-05T06:03:43.336Z,957.1
2023-05-05T06:04:45.030Z,957.12
2023-05-05T06:05:47.106Z,957.12
2023-05-05T06:06:49.047Z,957.15
2023-05-05T06:07:51.038Z,957.17
2023-05-05T06:09:55.019Z,957.13
2023-05-05T06:10:57.090Z,957.15
2023-05-05T06:12:31.870Z,957.16
2023-05-05T06:13:31.800Z,957.17
2023-05-05T06:14:31.879Z,957.16
2023-05-05T06:16:07.229Z,957.15
2023-05-05T06:17:09.082Z,957.14
2023-05-05T06:18:11.113Z,957.08
2023-05-05T06:19:13.181Z,957.08
2023-05-05T06:20:15.047Z,957.04
2023-05-05T06:21:17.022Z,957.04
2023-05-05T06:22:19.019Z,957.04
2023-05-05T06:23:21.096Z,956.99
2023-05-05T06:24:23.079Z,956.99
2023-05-05T06:25:25.025Z,956.92
2023-05-05T06:26:27.025Z,956.92
2023-05-05T06:27:29.031Z,956.89
2023-05-05T06:28:32.222Z,956.91
2023-05-05T06:29:35.035Z,956.93
2023-05-05T06:30:37.109Z,956.95
2023-05-05T06:31:39.061Z,956.98
2023-05-05T06:32:41.058Z,957.01
2023-05-05T06:33:43.269Z,957.02
2023-05-05T06:34:45.023Z,957.04
2023-05-05T06:35:48.030Z,957.04
2023-05-05T06:36:50.156Z,957.04
2023-05-05T06:37:52.051Z,957.02
2023-05-05T06:38:54.048Z,957.01
2023-05-05T06:39:56.049Z,956.99
2023-05-05T06:42:09.138Z,957.01
2023-05-05T06:43:03.062Z,957.06
2023-05-05T06:44:05.049Z,957.09
2023-05-05T06:45:07.049Z,957.11
2023-05-05T06:46:09.087Z,957.08
2023-05-05T06:47:11.061Z,957.07
2023-05-05T06:48:13.088Z,957.04
2023-05-05T06:49:15.077Z,957.05
2023-05-05T06:50:17.060Z,957.05
2023-05-05T06:51:20.057Z,957.04
2023-05-05T06:52:22.051Z,957
2023-05-05T06:53:24.110Z,956.99
2023-05-05T06:54:26.058Z,956.99
2023-05-05T06:55:28.059Z,956.99
2023-05-05T06:56:30.055Z,956.99
2023-05-05T06:57:32.147Z,956.97
2023-05-05T06:58:35.125Z,956.99
2023-05-05T06:59:37.055Z,956.96
2023-05-05T07:00:39.076Z,956.93
2023-05-05T07:01:41.170Z,956.96
2023-05-05T07:02:43.096Z,956.92
2023-05-05T07:03:45.666Z,956.93
2023-05-05T07:04:47.055Z,956.93
2023-05-05T07:05:49.066Z,956.92
2023-05-05T07:06:51.072Z,956.93
2023-05-05T07:07:53.085Z,956.91
2023-05-05T07:08:55.395Z,956.84
2023-05-05T07:09:57.085Z,956.83
2023-05-05T07:10:59.070Z,956.82
2023-05-05T07:12:02.053Z,956.83
2023-05-05T07:13:04.123Z,956.85
2023-05-05T07:14:06.120Z,956.85
2023-05-05T07:15:23.343Z,956.81
2023-05-05T07:16:11.151Z,956.81
2023-05-05T07:17:13.125Z,956.78
2023-05-05T07:18:15.121Z,956.79
2023-05-05T07:19:17.091Z,956.78
2023-05-05T07:20:19.188Z,956.79
2023-05-05T07:21:21.124Z,956.75
2023-05-05T07:22:23.071Z,956.77
2023-05-05T07:23:25.112Z,956.75
2023-05-05T07:24:27.083Z,956.78
2023-05-05T07:25:29.129Z,956.76
2023-05-05T07:26:32.194Z,956.77
2023-05-05T07:27:35.068Z,956.73
2023-05-05T07:28:37.079Z,956.72
2023-05-05T07:29:39.087Z,956.7
2023-05-05T07:30:41.192Z,956.68
2023-05-05T07:31:43.170Z,956.72
2023-05-05T07:32:45.125Z,956.7
2023-05-05T07:33:47.111Z,956.7
2023-05-05T07:34:49.085Z,956.7
2023-05-05T07:35:51.177Z,956.63
2023-05-05T07:36:53.090Z,956.64
2023-05-05T07:37:55.103Z,956.63
2023-05-05T07:38:57.087Z,956.63
2023-05-05T07:39:59.094Z,956.6
2023-05-05T07:41:01.156Z,956.55
2023-05-05T07:42:03.107Z,956.54
2023-05-05T07:43:05.098Z,956.51
2023-05-05T07:44:07.092Z,956.51
2023-05-05T07:45:21.868Z,956.47
2023-05-05T07:46:11.209Z,956.5
2023-05-05T07:47:13.104Z,956.48
2023-05-05T07:48:17.102Z,956.44
2023-05-05T07:49:19.087Z,956.42
2023-05-05T07:50:21.191Z,956.43
2023-05-05T07:51:23.222Z,956.46
2023-05-05T07:52:36.970Z,956.45
2023-05-05T07:53:29.098Z,956.47
2023-05-05T07:54:32.399Z,956.39
2023-05-05T07:55:35.178Z,956.38
2023-05-05T07:56:37.088Z,956.42
2023-05-05T07:57:39.105Z,956.43
2023-05-05T07:58:41.101Z,956.44
2023-05-05T07:59:43.104Z,956.45
2023-05-05T08:00:46.189Z,956.44
2023-05-05T08:01:48.100Z,956.37
2023-05-05T08:02:50.261Z,956.36
2023-05-05T08:03:54.158Z,956.37
2023-05-05T08:04:56.157Z,956.33
2023-05-05T08:06:00.170Z,956.34
2023-05-05T08:07:02.158Z,956.38
2023-05-05T08:08:04.141Z,956.38
2023-05-05T08:09:08.184Z,956.36
2023-05-05T08:10:12.473Z,956.38
2023-05-05T08:11:16.119Z,956.35
2023-05-05T08:12:18.121Z,956.35
2023-05-05T08:13:22.101Z,956.37
2023-05-05T08:14:24.129Z,956.34
2023-05-05T08:15:28.201Z,956.28
2023-05-05T08:16:32.263Z,956.28
2023-05-05T08:17:34.174Z,956.27
2023-05-05T08:18:38.121Z,956.31
2023-05-05T08:19:42.195Z,956.36
2023-05-05T08:20:46.177Z,956.37
2023-05-05T08:21:50.124Z,956.4
2023-05-05T08:22:54.182Z,956.4
2023-05-05T08:23:58.120Z,956.38
2023-05-05T08:25:02.137Z,956.4
2023-05-05T08:26:06.180Z,956.39
2023-05-05T08:27:10.161Z,956.35
2023-05-05T08:28:14.175Z,956.33
2023-05-05T08:29:18.127Z,956.34
2023-05-05T08:30:22.132Z,956.33
2023-05-05T08:31:26.146Z,956.33
2023-05-05T08:32:30.198Z,956.3
2023-05-05T08:33:32.283Z,956.3
2023-05-05T08:34:35.134Z,956.32
2023-05-05T08:35:39.134Z,956.27
2023-05-05T08:36:43.186Z,956.34
2023-05-05T08:37:47.230Z,956.34
2023-05-05T08:38:51.148Z,956.35
2023-05-05T08:39:55.131Z,956.36
2023-05-05T08:40:59.130Z,956.36
2023-05-05T08:42:03.152Z,956.34
2023-05-05T08:43:07.152Z,956.31
2023-05-05T08:44:11.127Z,956.31
2023-05-05T08:45:15.143Z,956.27
2023-05-05T08:46:20.177Z,956.25
2023-05-05T08:47:24.220Z,956.24
2023-05-05T08:48:28.147Z,956.25
2023-05-05T08:49:32.446Z,956.26
2023-05-05T08:50:35.165Z,956.19
2023-05-05T08:51:39.151Z,956.19
2023-05-05T08:52:43.286Z,956.21
2023-05-05T08:53:47.136Z,956.24
2023-05-05T08:54:52.144Z,956.26
2023-05-05T08:55:56.263Z,956.33
2023-05-05T08:57:00.148Z,956.25
2023-05-05T08:58:04.191Z,956.25
2023-05-05T08:59:08.157Z,956.21
2023-05-05T09:00:12.271Z,956.18
2023-05-05T09:01:16.227Z,956.18
2023-05-05T09:02:20.230Z,956.2
2023-05-05T09:03:24.226Z,956.18
2023-05-05T09:04:28.157Z,956.15
2023-05-05T09:05:32.293Z,956.16
2023-05-05T09:06:35.160Z,956.17
2023-05-05T09:07:39.220Z,956.17
2023-05-05T09:08:43.157Z,956.15
2023-05-05T09:09:47.156Z,956.15
2023-05-05T09:10:51.168Z,956.16
2023-05-05T09:11:55.162Z,956.15
2023-05-05T09:12:59.238Z,956.14
2023-05-05T09:14:03.179Z,956.15
2023-05-05T09:15:07.437Z,956.16
2023-05-05T09:16:11.265Z,956.15
2023-05-05T09:17:15.317Z,956.17
2023-05-05T09:18:19.162Z,956.13
2023-05-05T09:19:23.157Z,956.07
2023-05-05T09:20:27.274Z,956.09
2023-05-05T09:21:32.376Z,956.09
2023-05-05T09:22:35.164Z,956.07
2023-05-05T09:23:39.160Z,956.09
2023-05-05T09:24:43.180Z,956.1
2023-05-05T09:25:47.171Z,956.05
2023-05-05T09:26:51.304Z,956.04
2023-05-05T09:27:55.185Z,956.08
2023-05-05T09:28:59.175Z,956.05
2023-05-05T09:30:03.167Z,956.01
2023-05-05T09:31:07.305Z,956.02
2023-05-05T09:32:11.265Z,956.02
2023-05-05T09:33:15.257Z,956.01
2023-05-05T09:34:19.180Z,956
2023-05-05T09:35:21.280Z,955.95
2023-05-05T09:36:26.218Z,955.96
2023-05-05T09:37:30.250Z,955.94
2023-05-05T09:38:32.278Z,955.98
2023-05-05T09:39:35.175Z,955.93
2023-05-05T09:40:39.185Z,955.93
2023-05-05T09:41:43.188Z,955.98
2023-05-05T09:42:47.190Z,955.98
2023-05-05T09:43:51.212Z,955.96
2023-05-05T09:44:56.411Z,955.99
2023-05-05T09:45:59.224Z,955.92
2023-05-05T09:47:05.381Z,955.94
2023-05-05T09:48:31.987Z,955.99
2023-05-05T09:49:31.993Z,955.97
2023-05-05T09:50:32.161Z,955.95
2023-05-05T09:51:32.049Z,955.97
2023-05-05T09:53:31.968Z,955.95
2023-05-05T09:55:32.113Z,955.89
2023-05-05T09:56:31.982Z,955.87
2023-05-05T09:57:39.185Z,955.79
2023-05-05T09:58:43.245Z,955.79
2023-05-05T10:00:32.033Z,955.81
2023-05-05T10:01:32.117Z,955.79
2023-05-05T10:02:32.066Z,955.79
2023-05-05T10:03:32.101Z,955.85
2023-05-05T10:04:32.030Z,955.84
2023-05-05T10:05:32.014Z,955.81
2023-05-05T10:06:32.030Z,955.82
2023-05-05T10:07:31.989Z,955.85
2023-05-05T10:08:30.995Z,955.76
2023-05-05T10:09:31.091Z,955.76
2023-05-05T10:10:31.023Z,955.73
2023-05-05T10:11:32.325Z,955.69
2023-05-05T10:12:35.311Z,955.69
2023-05-05T10:13:39.302Z,955.72
2023-05-05T10:14:43.337Z,955.7
2023-05-05T10:15:47.407Z,955.71
2023-05-05T10:16:51.306Z,955.7
2023-05-05T10:18:06.907Z,955.69
2023-05-05T10:18:59.379Z,955.69
2023-05-05T10:20:03.361Z,955.7
2023-05-05T10:22:11.322Z,955.69
2023-05-05T10:23:15.427Z,955.66
2023-05-05T10:24:19.298Z,955.72
2023-05-05T10:25:23.376Z,955.66
2023-05-05T10:26:27.299Z,955.62
2023-05-05T10:27:32.315Z,955.62
2023-05-05T10:28:35.301Z,955.59
2023-05-05T10:29:39.306Z,955.55
2023-05-05T10:30:43.450Z,955.6
2023-05-05T10:31:47.377Z,955.69
2023-05-05T10:33:00.848Z,955.65
2023-05-05T10:33:56.388Z,955.64
2023-05-05T10:35:00.318Z,955.61
2023-05-05T10:36:05.417Z,955.65
2023-05-05T10:37:09.330Z,955.65
2023-05-05T10:38:13.339Z,955.56
2023-05-05T10:39:17.331Z,955.58
2023-05-05T10:40:21.325Z,955.59
2023-05-05T10:41:25.380Z,955.57
2023-05-05T10:42:29.319Z,955.54
2023-05-05T10:43:33.322Z,955.55
2023-05-05T10:44:37.327Z,955.52
2023-05-05T10:45:41.571Z,955.5
2023-05-05T10:46:45.365Z,955.49
2023-05-05T10:47:49.358Z,955.48
2023-05-05T10:48:53.367Z,955.48
2023-05-05T10:49:57.368Z,955.49
2023-05-05T10:51:02.406Z,955.47
2023-05-05T10:52:06.340Z,955.46
2023-05-05T10:53:10.350Z,955.43
2023-05-05T10:54:14.437Z,955.42
2023-05-05T10:55:18.336Z,955.41
2023-05-05T10:56:22.393Z,955.43
2023-05-05T10:57:26.393Z,955.43
2023-05-05T10:58:30.389Z,955.39
2023-05-05T10:59:32.559Z,955.45
2023-05-05T11:01:39.381Z,955.38
2023-05-05T11:03:47.482Z,955.34
2023-05-05T11:04:51.345Z,955.4
2023-05-05T11:05:53.352Z,955.4
2023-05-05T11:06:58.352Z,955.35
2023-05-05T11:08:02.348Z,955.3
2023-05-05T11:09:06.446Z,955.27
2023-05-05T11:10:10.648Z,955.26
2023-05-05T11:11:14.379Z,955.27
2023-05-05T11:12:18.378Z,955.22
2023-05-05T11:13:22.505Z,955.25
2023-05-05T11:14:26.412Z,955.25
2023-05-05T11:15:30.597Z,955.23
2023-05-05T11:16:32.400Z,955.21
2023-05-05T11:17:35.579Z,955.17
2023-05-05T11:18:39.444Z,955.17
2023-05-05T11:19:43.391Z,955.12
2023-05-05T11:20:47.345Z,955.12
2023-05-05T11:21:51.357Z,955.12
2023-05-05T11:22:55.360Z,955.13
2023-05-05T11:24:00.405Z,955.15
2023-05-05T11:25:04.407Z,955.11
2023-05-05T11:26:08.322Z,955.06
2023-05-05T11:27:12.460Z,955.07
2023-05-05T11:28:17.378Z,955.07
2023-05-05T11:29:20.343Z,955.05
2023-05-05T11:30:24.378Z,955.06
2023-05-05T11:31:28.479Z,955.03
2023-05-05T11:32:32.457Z,955.07
2023-05-05T11:33:35.435Z,955.03
2023-05-05T11:34:39.352Z,954.95
2023-05-05T11:35:43.372Z,954.96
2023-05-05T11:36:45.358Z,954.93
2023-05-05T11:37:50.359Z,954.89
2023-05-05T11:38:54.424Z,954.92
2023-05-05T11:39:58.377Z,954.94
2023-05-05T11:41:02.382Z,954.97
2023-05-05T11:42:10.402Z,954.98
2023-05-05T11:43:10.425Z,954.93
2023-05-05T11:44:14.458Z,954.94
2023-05-05T11:45:31.101Z,954.87
2023-05-05T11:46:33.904Z,954.83
2023-05-05T11:47:31.108Z,954.86
2023-05-05T11:48:31.098Z,954.88
2023-05-05T11:49:32.578Z,954.96
2023-05-05T11:50:35.521Z,954.97
2023-05-05T11:51:39.386Z,954.93
2023-05-05T11:52:43.411Z,954.93
2023-05-05T11:53:47.390Z,954.91
2023-05-05T11:54:51.373Z,954.91
2023-05-05T11:56:31.169Z,954.97
2023-05-05T11:57:31.120Z,954.94
2023-05-05T11:58:31.093Z,954.95
2023-05-05T11:59:31.114Z,954.92
2023-05-05T12:00:31.112Z,954.92
2023-05-05T12:01:31.120Z,954.89
2023-05-05T12:02:31.194Z,954.9
2023-05-05T12:03:31.435Z,954.88
2023-05-05T12:04:31.138Z,954.85
2023-05-05T12:05:31.111Z,954.87
2023-05-05T12:06:32.543Z,954.89
2023-05-05T12:07:35.379Z,954.85
2023-05-05T12:08:39.416Z,954.87
2023-05-05T12:09:43.389Z,954.81
2023-05-05T12:10:47.496Z,954.82
2023-05-05T12:11:51.405Z,954.81
2023-05-05T12:12:55.970Z,954.82
2023-05-05T12:13:59.453Z,954.82
2023-05-05T12:15:03.497Z,954.83
2023-05-05T12:16:07.411Z,954.86
2023-05-05T12:18:15.398Z,954.82
2023-05-05T12:19:19.403Z,954.81
2023-05-05T12:20:23.442Z,954.81
2023-05-05T12:21:27.407Z,954.78
2023-05-05T12:23:41.301Z,954.79
2023-05-05T12:24:46.733Z,954.82
2023-05-05T12:26:31.399Z,954.79
2023-05-05T12:27:31.202Z,954.74
2023-05-05T12:28:31.190Z,954.75
2023-05-05T12:29:31.783Z,954.74
2023-05-05T12:30:34.187Z,954.75
2023-05-05T12:32:31.707Z,954.72
2023-05-05T12:33:31.146Z,954.69
2023-05-05T12:35:31.204Z,954.74
2023-05-05T12:36:31.523Z,954.67
2023-05-05T12:38:35.516Z,954.7
2023-05-05T12:39:39.427Z,954.64
2023-05-05T12:40:43.423Z,954.62
2023-05-05T12:41:47.439Z,954.62
2023-05-05T12:42:51.448Z,954.63
2023-05-05T12:43:55.525Z,954.58
2023-05-05T12:44:59.427Z,954.54
2023-05-05T12:46:03.502Z,954.54
2023-05-05T12:47:07.429Z,954.54
2023-05-05T12:48:11.432Z,954.54
2023-05-05T12:49:15.512Z,954.52
2023-05-05T12:50:19.437Z,954.49
2023-05-05T12:51:23.602Z,954.47
2023-05-05T12:52:27.442Z,954.48
2023-05-05T12:53:32.455Z,954.41
2023-05-05T12:54:35.426Z,954.42
2023-05-05T12:55:39.459Z,954.41
2023-05-05T12:56:43.448Z,954.41
2023-05-05T12:57:48.449Z,954.46
2023-05-05T12:58:51.430Z,954.42
2023-05-05T12:59:56.419Z,954.43
2023-05-05T13:00:59.503Z,954.43
2023-05-05T13:02:03.435Z,954.48
2023-05-05T13:03:07.502Z,954.45
2023-05-05T13:04:11.440Z,954.44
2023-05-05T13:05:15.464Z,954.44
2023-05-05T13:06:19.441Z,954.46
2023-05-05T13:07:23.452Z,954.48
2023-05-05T13:08:27.464Z,954.42
2023-05-05T13:09:32.774Z,954.4
2023-05-05T13:10:35.459Z,954.36
2023-05-05T13:11:39.429Z,954.38
2023-05-05T13:12:43.480Z,954.36
2023-05-05T13:13:47.462Z,954.34
2023-05-05T13:14:51.470Z,954.32
2023-05-05T13:15:55.533Z,954.33
2023-05-05T13:16:59.471Z,954.37
2023-05-05T13:18:03.507Z,954.34
2023-05-05T13:19:07.462Z,954.34
2023-05-05T13:20:11.460Z,954.32
2023-05-05T13:21:15.465Z,954.28
2023-05-05T13:22:19.472Z,954.29
2023-05-05T13:23:25.735Z,954.3
2023-05-05T13:25:32.765Z,954.3
2023-05-05T13:26:35.474Z,954.26